Aérodrome :
LOGIN :

S'inscrire | Disclaimer

   EN    FR    IT 

 










Légende :    VFR   VFR Marginal   IFR   IFR Intensif   IFR Très Intensif
Visi : 
Plafond : 
>= 8 km
>= 3000ft
5 à 8 km
1000 à 3000 ft
1500m à 5 km
500 à 1000 ft
800 à 1500m
200 à 500 ft
< 800m
< 200 ft
Symboles :   Orages  Brouillard  Fortes neiges  Fortes précipitations  Vent > 20 kt
SIGMETs :   Divers  Orages  Givrage  Turbulence  Onde Orograph.  Cendres Volcan.






- Altitude de l'aérodrome : 1260 ft
- Code IATA : LDE


LFBT - Tarbes / Ossun

DERNIER METAR :
  • 161100Z AUTO 01004KT 320V110 CAVOK 12/07 Q1001 TEMPO 18015G27KT

METARs EXPIRÉS :
  • 161030Z AUTO 36004KT 310V050 CAVOK 11/07 Q1002 TEMPO 18015G27KT
  • 161000Z AUTO 34003KT 280V060 CAVOK 11/07 Q1002 TEMPO 18015G27KT
  • 160930Z AUTO VRB02KT CAVOK 10/06 Q1002 TEMPO 18015G27KT
  • 160900Z AUTO VRB03KT 9999 FEW011 08/06 Q1002 TEMPO 18015G27KT
  • 160830Z AUTO VRB03KT CAVOK 05/05 Q1002 TEMPO 18015G27KT

TAF TAF LFBT
Valide du 16 à 06h jusqu'au 17 à 06h UTC


160500Z 1606/1706 VRB02KT CAVOK
BECMG 1609/1611 19010KT
PROB40
TEMPO 1610/1617 18015G27KT



MET'MAP, la Météo Aéronautique d'un coup d'oeil ! - Copyright ORBIFLY Décembre 2007 - Disclaimer

ORBIFLY MET'MAP TEAM :

Programmation & Développement : Alexandra Zaïnal
Sur une idée originale de : Baudouin d'Aumeries
Assistance à la programmation : Marc-Olivier Méhu
Soutien technique & logistique : Manuel Goepfert

Contact : metmap@orbifly.com




SOURCES & CREDITS :

   NOAA